createdAt,value
2022-09-26T00:00:13.190Z,1.00
2022-09-26T00:02:40.787Z,1.50
2022-09-26T00:05:08.886Z,2.07
2022-09-26T00:07:37.509Z,1.97
2022-09-26T00:10:05.050Z,1.60
2022-09-26T00:12:32.256Z,1.90
2022-09-26T00:14:59.447Z,1.30
2022-09-26T00:17:26.696Z,2.37
2022-09-26T00:19:53.913Z,1.43
2022-09-26T00:22:21.173Z,1.50
2022-09-26T00:24:49.755Z,1.50
2022-09-26T00:30:38.448Z,1.43
2022-09-26T00:33:05.718Z,1.60
2022-09-26T00:35:33.054Z,1.70
2022-09-26T00:38:00.368Z,1.93
2022-09-26T00:40:29.330Z,1.60
2022-09-26T00:42:56.622Z,1.70
2022-09-26T00:45:31.976Z,1.50
2022-09-26T00:48:00.669Z,1.43
2022-09-26T00:50:30.068Z,1.77
2022-09-26T00:52:59.827Z,1.40
2022-09-26T00:55:34.502Z,1.37
2022-09-26T00:58:13.632Z,1.53
2022-09-26T01:00:42.515Z,1.47
2022-09-26T01:03:09.986Z,1.70
2022-09-26T01:05:37.665Z,1.53
2022-09-26T01:08:05.193Z,1.50
2022-09-26T01:10:34.679Z,1.90
2022-09-26T01:13:02.474Z,1.60
2022-09-26T01:15:29.701Z,1.87
2022-09-26T01:17:57.636Z,1.83
2022-09-26T01:20:33.211Z,1.70
2022-09-26T01:23:19.183Z,1.70
2022-09-26T01:26:23.527Z,1.67
2022-09-26T01:29:13.036Z,1.60
2022-09-26T01:31:47.600Z,1.80
2022-09-26T01:34:20.187Z,2.57
2022-09-26T01:36:55.985Z,2.43
2022-09-26T01:39:30.078Z,2.20
2022-09-26T01:42:04.673Z,1.90
2022-09-26T01:44:48.791Z,2.07
2022-09-26T01:47:18.267Z,1.90
2022-09-26T01:49:49.032Z,2.00
2022-09-26T01:52:21.238Z,2.03
2022-09-26T01:54:56.987Z,1.93
2022-09-26T01:57:31.976Z,1.93
2022-09-26T02:00:01.569Z,1.80
2022-09-26T02:02:33.468Z,2.03
2022-09-26T02:05:03.616Z,2.13
2022-09-26T02:07:34.576Z,2.47
2022-09-26T02:10:04.435Z,1.87
2022-09-26T02:12:33.061Z,2.00
2022-09-26T02:15:08.295Z,2.20
2022-09-26T02:17:38.785Z,2.30
2022-09-26T02:20:09.792Z,1.90
2022-09-26T02:22:37.254Z,1.77
2022-09-26T02:25:19.815Z,1.83
2022-09-26T02:28:11.832Z,1.80
2022-09-26T02:30:39.689Z,1.53
2022-09-26T02:33:08.644Z,2.20
2022-09-26T02:35:36.054Z,1.83
2022-09-26T02:38:04.680Z,1.80
2022-09-26T02:40:38.447Z,2.30
2022-09-26T02:43:24.119Z,2.00
2022-09-26T02:45:58.240Z,1.80
2022-09-26T02:48:36.790Z,1.90
2022-09-26T02:51:09.513Z,1.87
2022-09-26T02:53:52.294Z,2.00
2022-09-26T02:56:36.471Z,1.60
2022-09-26T02:59:08.841Z,2.17
2022-09-26T03:01:41.402Z,2.87
2022-09-26T03:04:14.724Z,1.90
2022-09-26T03:06:44.387Z,1.87
2022-09-26T03:09:12.884Z,2.13
2022-09-26T03:11:41.756Z,3.07
2022-09-26T03:14:09.873Z,1.93
2022-09-26T03:16:38.890Z,2.93
2022-09-26T03:19:08.595Z,1.70
2022-09-26T03:21:37.564Z,1.97
2022-09-26T03:24:09.115Z,2.07
2022-09-26T03:26:38.066Z,2.00
2022-09-26T03:29:11.242Z,1.70
2022-09-26T03:31:38.633Z,1.40
2022-09-26T03:34:07.171Z,1.97
2022-09-26T03:36:34.478Z,1.93
2022-09-26T03:39:04.948Z,2.20
2022-09-26T03:41:38.903Z,2.43
2022-09-26T03:44:26.446Z,1.73
2022-09-26T03:47:12.639Z,2.30
2022-09-26T03:49:44.766Z,1.90
2022-09-26T03:52:18.656Z,1.90
2022-09-26T03:54:49.283Z,2.13
2022-09-26T03:57:20.077Z,1.90
2022-09-26T03:59:52.547Z,2.43
2022-09-26T04:02:20.144Z,1.90
2022-09-26T04:04:52.578Z,1.80
2022-09-26T04:07:19.824Z,1.87
2022-09-26T04:09:48.564Z,1.90
2022-09-26T04:12:21.461Z,2.03
2022-09-26T04:14:48.708Z,1.90
2022-09-26T04:17:16.814Z,1.90
2022-09-26T04:19:46.089Z,2.20
2022-09-26T04:22:14.638Z,1.90
2022-09-26T04:25:02.610Z,2.23
2022-09-26T04:27:31.630Z,2.13
2022-09-26T04:29:58.852Z,2.37
2022-09-26T04:32:45.394Z,2.40
2022-09-26T04:35:35.678Z,2.07
2022-09-26T04:38:02.943Z,1.90
2022-09-26T04:40:30.203Z,1.87
2022-09-26T04:43:06.373Z,2.20
2022-09-26T04:45:33.734Z,2.20
2022-09-26T04:48:02.666Z,1.80
2022-09-26T04:50:50.206Z,2.23
2022-09-26T04:53:18.593Z,2.10
2022-09-26T04:56:11.399Z,2.27
2022-09-26T04:58:40.537Z,2.00
2022-09-26T05:01:09.161Z,2.27
2022-09-26T05:03:50.503Z,2.53
2022-09-26T05:06:18.170Z,2.50
2022-09-26T05:08:45.882Z,2.20
2022-09-26T05:11:20.067Z,2.50
2022-09-26T05:13:53.120Z,2.50
2022-09-26T05:16:21.172Z,2.47
2022-09-26T05:18:51.347Z,2.23
2022-09-26T05:21:24.386Z,2.30
2022-09-26T05:23:52.030Z,2.30
2022-09-26T05:26:21.712Z,2.10
2022-09-26T05:28:51.964Z,2.47
2022-09-26T05:31:22.954Z,2.47
2022-09-26T05:33:50.459Z,2.50
2022-09-26T05:36:18.142Z,2.53
2022-09-26T05:38:45.908Z,1.90
2022-09-26T05:41:14.260Z,2.30
2022-09-26T05:43:41.844Z,2.13
2022-09-26T05:46:14.207Z,2.20
2022-09-26T05:48:47.161Z,2.23
2022-09-26T05:51:20.134Z,2.03
2022-09-26T05:53:47.908Z,2.17
2022-09-26T05:56:19.525Z,2.53
2022-09-26T05:59:10.230Z,2.03
2022-09-26T06:01:57.806Z,2.53
2022-09-26T06:04:39.282Z,2.00
2022-09-26T06:07:33.430Z,2.13
2022-09-26T06:10:07.261Z,2.10
2022-09-26T06:12:41.061Z,2.30
2022-09-26T06:15:08.823Z,2.60
2022-09-26T06:17:37.845Z,2.53
2022-09-26T06:20:06.157Z,2.70
2022-09-26T06:22:39.645Z,2.40
2022-09-26T06:25:07.595Z,2.47
2022-09-26T06:27:34.868Z,2.70
2022-09-26T06:30:02.104Z,2.70
2022-09-26T06:32:30.131Z,2.27
2022-09-26T06:35:19.262Z,2.40
2022-09-26T06:38:02.651Z,2.50
2022-09-26T06:40:29.962Z,2.17
2022-09-26T06:42:57.203Z,2.67
2022-09-26T06:45:27.109Z,2.83
2022-09-26T06:48:15.607Z,2.47
2022-09-26T06:50:58.259Z,3.13
2022-09-26T06:53:25.560Z,2.60
2022-09-26T06:55:52.765Z,2.43
2022-09-26T06:58:20.018Z,2.53
2022-09-26T07:01:07.635Z,2.23
2022-09-26T07:03:54.509Z,2.30
2022-09-26T07:06:36.834Z,2.20
2022-09-26T07:09:12.877Z,2.23
2022-09-26T07:12:13.616Z,2.30
2022-09-26T07:14:37.732Z,2.50
2022-09-26T07:17:19.179Z,1.87
2022-09-26T07:20:06.367Z,2.10
2022-09-26T07:22:55.936Z,2.50
2022-09-26T07:28:26.425Z,2.20
2022-09-26T07:30:56.133Z,2.23
2022-09-26T07:33:45.117Z,2.37
2022-09-26T07:36:12.631Z,2.53
2022-09-26T07:38:42.224Z,2.00
2022-09-26T07:41:14.948Z,3.17
2022-09-26T07:47:18.903Z,2.40
2022-09-26T07:49:46.645Z,2.50
2022-09-26T07:52:35.418Z,2.27
2022-09-26T08:05:29.657Z,2.57
2022-09-26T08:07:57.194Z,2.27
2022-09-26T08:10:44.923Z,2.57
2022-09-26T08:13:31.530Z,2.63
2022-09-26T08:16:21.930Z,2.40
2022-09-26T08:18:49.943Z,2.23
2022-09-26T08:21:18.995Z,2.60
2022-09-26T08:23:46.763Z,2.70
2022-09-26T08:26:32.052Z,2.97
2022-09-26T08:29:04.800Z,2.40
2022-09-26T08:31:47.593Z,2.97
2022-09-26T08:37:53.207Z,2.47
2022-09-26T08:40:56.441Z,2.47
2022-09-26T08:43:48.212Z,3.17
2022-09-26T08:46:22.011Z,2.80
2022-09-26T08:49:34.723Z,3.33
2022-09-26T08:52:05.799Z,2.73
2022-09-26T08:54:36.851Z,2.30
2022-09-26T08:57:06.433Z,2.23
2022-09-26T08:59:36.215Z,2.37
2022-09-26T09:02:10.506Z,2.53
2022-09-26T09:04:53.943Z,2.73
2022-09-26T09:07:23.615Z,2.17
2022-09-26T09:09:52.916Z,2.93
2022-09-26T09:12:34.654Z,3.03
2022-09-26T09:15:27.540Z,2.23
2022-09-26T09:18:13.737Z,3.00
2022-09-26T09:21:02.755Z,2.70
2022-09-26T09:23:56.445Z,2.70
2022-09-26T09:29:30.397Z,2.67
2022-09-26T09:32:18.461Z,2.63
2022-09-26T09:34:58.764Z,2.97
2022-09-26T09:37:47.225Z,2.63
2022-09-26T09:40:27.240Z,2.73
2022-09-26T09:43:02.387Z,2.43
2022-09-26T09:45:31.404Z,2.30
2022-09-26T09:47:58.850Z,2.10
2022-09-26T09:50:30.237Z,2.00
2022-09-26T09:52:59.564Z,2.10
2022-09-26T09:55:35.915Z,2.40
2022-09-26T09:58:27.122Z,1.90
2022-09-26T10:01:01.140Z,1.60
2022-09-26T10:03:38.129Z,1.70
2022-09-26T10:06:06.578Z,1.57
2022-09-26T10:08:41.156Z,1.73
2022-09-26T10:11:28.406Z,1.30
2022-09-26T10:14:00.500Z,1.70
2022-09-26T10:17:09.160Z,1.70
2022-09-26T10:19:43.856Z,1.50
2022-09-26T10:22:15.161Z,1.50
2022-09-26T10:24:42.496Z,1.90
2022-09-26T10:27:16.565Z,1.47
2022-09-26T10:29:45.477Z,1.40
2022-09-26T10:32:13.006Z,1.60
2022-09-26T10:35:02.740Z,1.80
2022-09-26T10:37:30.872Z,1.50
2022-09-26T10:40:21.757Z,1.57
2022-09-26T10:43:06.474Z,1.63
2022-09-26T10:45:35.718Z,1.80
2022-09-26T10:48:22.749Z,1.50
2022-09-26T10:51:27.844Z,1.50
2022-09-26T10:54:03.503Z,1.60
2022-09-26T10:56:32.695Z,1.60
2022-09-26T10:59:02.076Z,1.63
2022-09-26T11:01:31.520Z,1.50
2022-09-26T11:04:00.792Z,1.77
2022-09-26T11:06:44.592Z,1.60
2022-09-26T11:09:28.268Z,1.67
2022-09-26T11:11:58.415Z,1.47
2022-09-26T11:14:31.212Z,1.50
2022-09-26T11:17:02.337Z,1.73
2022-09-26T11:19:35.183Z,1.67
2022-09-26T11:22:08.344Z,1.70
2022-09-26T11:24:45.244Z,3.03
2022-09-26T11:27:18.691Z,1.50
2022-09-26T11:29:49.692Z,1.30
2022-09-26T11:32:24.119Z,1.40
2022-09-26T11:34:59.382Z,1.43
2022-09-26T11:37:35.467Z,1.50
2022-09-26T11:40:24.131Z,1.57
2022-09-26T11:43:05.960Z,1.87
2022-09-26T11:45:40.919Z,1.60
2022-09-26T11:48:51.595Z,1.70
2022-09-26T11:52:04.419Z,1.30
2022-09-26T11:54:51.903Z,1.97
2022-09-26T11:57:29.019Z,1.67
2022-09-26T12:00:16.331Z,2.00
2022-09-26T12:02:56.644Z,1.80
2022-09-26T12:05:27.853Z,1.93
2022-09-26T12:08:00.327Z,2.33
2022-09-26T12:10:33.790Z,1.80
2022-09-26T12:13:17.592Z,2.03
2022-09-26T12:15:47.193Z,1.90
2022-09-26T12:18:17.365Z,2.03
2022-09-26T12:20:52.319Z,2.00
2022-09-26T12:23:26.367Z,1.70
2022-09-26T12:26:05.058Z,2.57
2022-09-26T12:28:43.192Z,2.00
2022-09-26T12:31:26.947Z,1.90
2022-09-26T12:34:13.372Z,2.20
2022-09-26T12:36:45.104Z,2.80
2022-09-26T12:39:39.778Z,2.47
2022-09-26T12:42:16.612Z,3.47
2022-09-26T12:44:51.964Z,2.87
2022-09-26T12:47:24.498Z,3.20
2022-09-26T12:50:04.115Z,2.67
2022-09-26T12:52:38.383Z,3.63
2022-09-26T12:55:10.046Z,4.13
2022-09-26T13:15:02.050Z,2.37
2022-09-26T13:17:51.562Z,2.43
2022-09-26T13:20:22.396Z,2.77
2022-09-26T13:26:13.942Z,1.97
2022-09-26T13:29:00.613Z,3.87
2022-09-26T13:31:35.403Z,2.90
2022-09-26T13:34:05.484Z,3.70
2022-09-26T13:36:33.459Z,2.90
2022-09-26T13:39:03.446Z,3.20
2022-09-26T13:41:35.057Z,4.00
2022-09-26T13:44:09.728Z,3.60
2022-09-26T13:46:44.041Z,3.80
2022-09-26T13:49:21.253Z,3.33
2022-09-26T13:51:51.590Z,3.40
2022-09-26T13:54:21.841Z,4.00
2022-09-26T13:56:49.689Z,3.80
2022-09-26T13:59:24.810Z,2.00
2022-09-26T14:02:10.664Z,4.60
2022-09-26T14:04:39.385Z,5.20
2022-09-26T14:07:20.124Z,4.73
2022-09-26T14:09:55.210Z,4.87
2022-09-26T14:12:33.800Z,4.63
2022-09-26T14:15:15.196Z,4.53
2022-09-26T14:18:03.253Z,4.43
2022-09-26T14:20:33.834Z,4.90
2022-09-26T14:23:01.651Z,4.50
2022-09-26T14:25:48.000Z,4.53
2022-09-26T14:28:21.887Z,4.33
2022-09-26T14:31:08.009Z,3.47
2022-09-26T14:33:35.456Z,4.27
2022-09-26T14:36:24.382Z,4.43
2022-09-26T14:38:52.202Z,3.87
2022-09-26T14:41:20.758Z,3.50
2022-09-26T14:43:48.887Z,3.53
2022-09-26T14:46:17.585Z,3.67
2022-09-26T14:48:45.593Z,2.70
2022-09-26T14:51:36.680Z,3.33
2022-09-26T14:54:06.731Z,2.87
2022-09-26T14:56:40.957Z,3.30
2022-09-26T14:59:26.682Z,3.20
2022-09-26T15:01:55.077Z,2.53
2022-09-26T15:04:23.930Z,2.80
2022-09-26T15:06:53.176Z,3.27
2022-09-26T15:09:23.397Z,3.73
2022-09-26T15:11:54.043Z,2.40
2022-09-26T15:14:25.828Z,2.43
2022-09-26T15:16:55.241Z,2.67
2022-09-26T15:19:25.823Z,3.17
2022-09-26T15:21:54.764Z,3.67
2022-09-26T15:24:24.535Z,3.10
2022-09-26T15:26:52.035Z,2.70
2022-09-26T15:29:19.319Z,2.73
2022-09-26T15:31:46.691Z,2.37
2022-09-26T15:34:15.159Z,3.33
2022-09-26T15:36:43.054Z,2.87
2022-09-26T15:39:25.211Z,2.33
2022-09-26T15:41:54.131Z,3.30
2022-09-26T15:44:25.061Z,3.03
2022-09-26T15:46:52.404Z,3.50
2022-09-26T15:49:20.473Z,2.33
2022-09-26T15:51:49.991Z,2.77
2022-09-26T15:54:22.992Z,2.90
2022-09-26T15:56:50.935Z,2.90
2022-09-26T15:59:20.732Z,2.53
2022-09-26T16:01:48.998Z,3.43
2022-09-26T16:04:20.452Z,3.23
2022-09-26T16:06:55.119Z,3.23
2022-09-26T16:09:24.033Z,3.37
2022-09-26T16:11:53.619Z,3.27
2022-09-26T16:14:27.114Z,2.07
2022-09-26T16:16:56.226Z,2.43
2022-09-26T16:19:31.227Z,2.03
2022-09-26T16:21:58.423Z,2.47
2022-09-26T16:24:30.903Z,1.97
2022-09-26T16:26:58.134Z,1.90
2022-09-26T16:29:33.458Z,2.27
2022-09-26T16:32:01.033Z,1.87
2022-09-26T16:34:29.633Z,2.23
2022-09-26T16:36:57.495Z,2.27
2022-09-26T16:39:25.755Z,2.40
2022-09-26T16:42:01.787Z,2.07
2022-09-26T16:44:35.394Z,2.70
2022-09-26T16:47:06.587Z,2.90
2022-09-26T16:49:44.967Z,2.23
2022-09-26T16:52:20.831Z,1.57
2022-09-26T16:54:48.162Z,2.47
2022-09-26T16:57:18.868Z,1.97
2022-09-26T16:59:46.154Z,2.10
2022-09-26T17:02:14.722Z,2.40
2022-09-26T17:04:43.249Z,1.70
2022-09-26T17:07:12.476Z,1.90
2022-09-26T17:09:39.803Z,1.77
2022-09-26T17:12:07.918Z,1.70
2022-09-26T17:14:40.465Z,2.30
2022-09-26T17:17:09.078Z,2.50
2022-09-26T17:19:39.109Z,1.90
2022-09-26T17:22:06.787Z,2.37
2022-09-26T17:24:49.679Z,1.70
2022-09-26T17:27:17.846Z,1.90
2022-09-26T17:29:46.246Z,1.60
2022-09-26T17:32:15.391Z,1.67
2022-09-26T17:34:50.338Z,1.97
2022-09-26T17:37:18.914Z,2.00
2022-09-26T17:39:46.343Z,2.00
2022-09-26T17:42:13.584Z,1.97
2022-09-26T17:47:23.488Z,1.70
2022-09-26T17:49:58.028Z,2.00
2022-09-26T17:52:26.704Z,2.43
2022-09-26T17:54:54.679Z,2.10
2022-09-26T17:57:21.904Z,2.27
2022-09-26T17:59:49.083Z,2.13
2022-09-26T18:02:20.897Z,2.20
2022-09-26T18:04:48.736Z,1.73
2022-09-26T18:07:29.871Z,1.80
2022-09-26T18:09:57.256Z,1.80
2022-09-26T18:12:24.956Z,1.57
2022-09-26T18:14:52.337Z,2.00
2022-09-26T18:17:19.702Z,2.87
2022-09-26T18:19:46.960Z,2.30
2022-09-26T18:22:15.954Z,2.33
2022-09-26T18:24:46.281Z,2.00
2022-09-26T18:27:14.275Z,2.43
2022-09-26T18:29:42.857Z,1.90
2022-09-26T18:32:13.213Z,1.77
2022-09-26T18:34:40.406Z,1.77
2022-09-26T18:37:07.663Z,2.00
2022-09-26T18:39:34.892Z,1.80
2022-09-26T18:42:11.209Z,1.90
2022-09-26T18:44:38.519Z,1.93
2022-09-26T18:47:11.350Z,2.43
2022-09-26T18:49:38.699Z,2.17
2022-09-26T18:52:07.082Z,2.13
2022-09-26T18:54:34.435Z,2.10
2022-09-26T18:57:01.678Z,2.13
2022-09-26T18:59:30.206Z,2.20
2022-09-26T19:01:57.868Z,1.87
2022-09-26T19:04:25.158Z,1.73
2022-09-26T19:06:54.958Z,1.40
2022-09-26T19:09:22.751Z,1.50
2022-09-26T19:11:49.982Z,1.80
2022-09-26T19:14:19.355Z,1.70
2022-09-26T19:16:49.135Z,1.80
2022-09-26T19:19:16.841Z,1.63
2022-09-26T19:21:46.492Z,2.13
2022-09-26T19:24:15.855Z,1.37
2022-09-26T19:26:43.604Z,1.43
2022-09-26T19:29:13.433Z,1.43
2022-09-26T19:31:41.002Z,1.40
2022-09-26T19:34:13.450Z,1.30
2022-09-26T19:36:40.708Z,1.53
2022-09-26T19:39:10.595Z,1.83
2022-09-26T19:41:37.812Z,2.10
2022-09-26T19:44:05.134Z,1.63
2022-09-26T19:46:32.630Z,2.10
2022-09-26T19:48:59.968Z,1.93
2022-09-26T19:51:28.972Z,1.90
2022-09-26T19:53:56.215Z,1.83
2022-09-26T19:56:23.434Z,2.33
2022-09-26T19:58:50.706Z,1.60
2022-09-26T20:01:18.632Z,1.70
2022-09-26T20:03:45.888Z,1.50
2022-09-26T20:06:13.755Z,2.33
2022-09-26T20:08:42.573Z,2.03
2022-09-26T20:11:09.795Z,2.00
2022-09-26T20:13:37.037Z,1.40
2022-09-26T20:16:04.310Z,2.50
2022-09-26T20:18:31.500Z,2.50
2022-09-26T20:20:59.220Z,1.80
2022-09-26T20:23:27.199Z,2.60
2022-09-26T20:25:56.143Z,2.10
2022-09-26T20:28:23.525Z,1.60
2022-09-26T20:30:50.986Z,2.00
2022-09-26T20:33:18.749Z,1.60
2022-09-26T20:35:47.525Z,1.50
2022-09-26T20:38:16.823Z,1.87
2022-09-26T20:40:44.086Z,1.50
2022-09-26T20:43:15.054Z,1.60
2022-09-26T20:45:42.538Z,1.73
2022-09-26T20:48:16.156Z,1.83
2022-09-26T20:50:43.419Z,2.47
2022-09-26T20:53:14.379Z,1.70
2022-09-26T20:55:44.108Z,1.83
2022-09-26T20:58:13.108Z,1.97
2022-09-26T21:00:40.750Z,2.10
2022-09-26T21:03:08.282Z,1.97
2022-09-26T21:05:35.519Z,1.50
2022-09-26T21:08:05.870Z,1.50
2022-09-26T21:10:33.893Z,2.73
2022-09-26T21:13:01.437Z,1.50
2022-09-26T21:15:31.208Z,2.00
2022-09-26T21:17:58.612Z,1.83
2022-09-26T21:20:27.028Z,2.20
2022-09-26T21:23:12.967Z,1.83
2022-09-26T21:25:40.244Z,1.77
2022-09-26T21:28:11.574Z,1.80
2022-09-26T21:30:40.180Z,1.30
2022-09-26T21:33:07.475Z,1.57
2022-09-26T21:35:34.734Z,1.67
2022-09-26T21:38:01.941Z,2.10
2022-09-26T21:40:30.485Z,1.30
2022-09-26T21:42:59.978Z,2.57
2022-09-26T21:45:27.561Z,1.83
2022-09-26T21:47:57.613Z,2.30
2022-09-26T21:50:25.974Z,1.70
2022-09-26T21:52:54.631Z,1.70
2022-09-26T21:55:23.166Z,1.70
2022-09-26T21:57:51.219Z,2.07
2022-09-26T22:07:05.495Z,1.30
2022-09-26T22:09:32.875Z,1.90
2022-09-26T22:12:00.069Z,1.60
2022-09-26T22:14:27.551Z,1.60
2022-09-26T22:16:54.804Z,1.70
2022-09-26T22:19:22.131Z,1.47
2022-09-26T22:21:49.347Z,1.63
2022-09-26T22:24:17.959Z,1.67
2022-09-26T22:26:45.154Z,1.77
2022-09-26T22:29:12.550Z,2.13
2022-09-26T22:31:39.865Z,1.73
2022-09-26T22:37:04.263Z,1.87
2022-09-26T22:39:33.259Z,1.40
2022-09-26T22:42:00.746Z,1.93
2022-09-26T22:44:27.992Z,1.87
2022-09-26T22:46:55.522Z,1.90
2022-09-26T22:49:22.718Z,1.57
2022-09-26T22:51:50.025Z,1.57
2022-09-26T22:54:17.307Z,1.97
2022-09-26T22:56:45.893Z,1.50
2022-09-26T22:59:13.221Z,2.00
2022-09-26T23:01:40.475Z,2.23
2022-09-26T23:04:07.717Z,2.00
2022-09-26T23:06:34.968Z,1.73
2022-09-26T23:09:02.408Z,2.17
2022-09-26T23:11:29.866Z,2.10
2022-09-26T23:13:58.505Z,2.90
2022-09-26T23:16:25.792Z,1.90
2022-09-26T23:18:53.155Z,2.33
2022-09-26T23:21:35.578Z,2.60
2022-09-26T23:24:21.109Z,2.17
2022-09-26T23:26:54.586Z,2.23
2022-09-26T23:29:23.202Z,2.83
2022-09-26T23:31:50.554Z,2.73
2022-09-26T23:34:18.078Z,1.90
2022-09-26T23:36:45.336Z,3.17
2022-09-26T23:39:17.673Z,2.50
2022-09-26T23:41:45.070Z,2.70
2022-09-26T23:44:12.262Z,1.77
2022-09-26T23:46:40.889Z,2.80
2022-09-26T23:49:27.575Z,2.23
2022-09-26T23:52:22.845Z,2.60
2022-09-26T23:54:56.387Z,3.43
2022-09-26T23:57:23.917Z,2.43
2022-09-26T23:59:51.189Z,2.87
